sensor_id;sensor_type;location;lat;lon;timestamp;temperature;humidity
71206;SHT31;58935;54.498;18.544;2023-02-24T00:02:22;5.75;79.82
71206;SHT31;58935;54.498;18.544;2023-02-24T00:04:47;5.75;79.95
71206;SHT31;58935;54.498;18.544;2023-02-24T00:07:16;5.77;80.07
71206;SHT31;58935;54.498;18.544;2023-02-24T00:09:42;5.76;80.11
71206;SHT31;58935;54.498;18.544;2023-02-24T00:12:10;5.77;80.17
71206;SHT31;58935;54.498;18.544;2023-02-24T00:14:39;5.78;80.37
71206;SHT31;58935;54.498;18.544;2023-02-24T00:17:06;5.78;80.61
71206;SHT31;58935;54.498;18.544;2023-02-24T00:19:33;5.78;80.89
71206;SHT31;58935;54.498;18.544;2023-02-24T00:21:59;5.75;80.80
71206;SHT31;58935;54.498;18.544;2023-02-24T00:24:26;5.75;81.14
71206;SHT31;58935;54.498;18.544;2023-02-24T00:26:53;5.73;81.33
71206;SHT31;58935;54.498;18.544;2023-02-24T00:29:19;5.72;81.62
71206;SHT31;58935;54.498;18.544;2023-02-24T00:31:48;5.72;81.77
71206;SHT31;58935;54.498;18.544;2023-02-24T00:34:21;5.72;81.89
71206;SHT31;58935;54.498;18.544;2023-02-24T00:36:49;5.73;81.91
71206;SHT31;58935;54.498;18.544;2023-02-24T00:39:14;5.73;82.11
71206;SHT31;58935;54.498;18.544;2023-02-24T00:41:41;5.73;82.32
71206;SHT31;58935;54.498;18.544;2023-02-24T00:44:08;5.73;82.49
71206;SHT31;58935;54.498;18.544;2023-02-24T00:46:38;5.75;82.58
71206;SHT31;58935;54.498;18.544;2023-02-24T00:49:10;5.74;82.86
71206;SHT31;58935;54.498;18.544;2023-02-24T00:51:41;5.75;82.88
71206;SHT31;58935;54.498;18.544;2023-02-24T00:54:08;5.76;82.97
71206;SHT31;58935;54.498;18.544;2023-02-24T00:56:39;5.77;83.13
71206;SHT31;58935;54.498;18.544;2023-02-24T00:59:06;5.78;83.10
71206;SHT31;58935;54.498;18.544;2023-02-24T01:01:32;5.79;83.02
71206;SHT31;58935;54.498;18.544;2023-02-24T01:04:00;5.81;83.16
71206;SHT31;58935;54.498;18.544;2023-02-24T01:06:35;5.82;83.13
71206;SHT31;58935;54.498;18.544;2023-02-24T01:09:05;5.82;83.23
71206;SHT31;58935;54.498;18.544;2023-02-24T01:11:33;5.83;83.36
71206;SHT31;58935;54.498;18.544;2023-02-24T01:14:07;5.84;83.37
71206;SHT31;58935;54.498;18.544;2023-02-24T01:16:37;5.86;83.47
71206;SHT31;58935;54.498;18.544;2023-02-24T01:19:03;5.86;83.69
71206;SHT31;58935;54.498;18.544;2023-02-24T01:21:30;5.86;83.65
71206;SHT31;58935;54.498;18.544;2023-02-24T01:23:56;5.86;83.61
71206;SHT31;58935;54.498;18.544;2023-02-24T01:26:22;5.85;83.83
71206;SHT31;58935;54.498;18.544;2023-02-24T01:28:47;5.85;83.96
71206;SHT31;58935;54.498;18.544;2023-02-24T01:31:14;5.85;84.03
71206;SHT31;58935;54.498;18.544;2023-02-24T01:33:42;5.85;84.14
71206;SHT31;58935;54.498;18.544;2023-02-24T01:36:12;5.85;84.30
71206;SHT31;58935;54.498;18.544;2023-02-24T01:38:40;5.84;84.51
71206;SHT31;58935;54.498;18.544;2023-02-24T01:41:07;5.84;84.40
71206;SHT31;58935;54.498;18.544;2023-02-24T01:46:07;5.82;84.58
71206;SHT31;58935;54.498;18.544;2023-02-24T01:48:37;5.83;84.73
71206;SHT31;58935;54.498;18.544;2023-02-24T01:51:03;5.82;85.01
71206;SHT31;58935;54.498;18.544;2023-02-24T01:53:32;5.82;84.95
71206;SHT31;58935;54.498;18.544;2023-02-24T01:55:57;5.81;84.90
71206;SHT31;58935;54.498;18.544;2023-02-24T01:58:25;5.83;84.87
71206;SHT31;58935;54.498;18.544;2023-02-24T02:00:53;5.84;84.91
71206;SHT31;58935;54.498;18.544;2023-02-24T02:03:24;5.84;84.80
71206;SHT31;58935;54.498;18.544;2023-02-24T02:05:55;5.84;84.77
71206;SHT31;58935;54.498;18.544;2023-02-24T02:08:26;5.84;84.78
71206;SHT31;58935;54.498;18.544;2023-02-24T02:10:52;5.86;84.75
71206;SHT31;58935;54.498;18.544;2023-02-24T02:13:23;5.86;84.70
71206;SHT31;58935;54.498;18.544;2023-02-24T02:15:52;5.85;84.73
71206;SHT31;58935;54.498;18.544;2023-02-24T02:18:31;5.86;84.75
71206;SHT31;58935;54.498;18.544;2023-02-24T02:21:25;5.85;84.72
71206;SHT31;58935;54.498;18.544;2023-02-24T02:24:17;5.86;84.72
71206;SHT31;58935;54.498;18.544;2023-02-24T02:29:36;5.86;84.77
71206;SHT31;58935;54.498;18.544;2023-02-24T02:37:30;5.89;84.62
71206;SHT31;58935;54.498;18.544;2023-02-24T02:40:06;5.89;84.68
71206;SHT31;58935;54.498;18.544;2023-02-24T02:45:21;5.94;84.54
71206;SHT31;58935;54.498;18.544;2023-02-24T02:47:53;5.95;84.48
71206;SHT31;58935;54.498;18.544;2023-02-24T02:50:28;5.95;84.47
71206;SHT31;58935;54.498;18.544;2023-02-24T02:53:01;5.96;84.39
71206;SHT31;58935;54.498;18.544;2023-02-24T02:58:02;5.98;84.41
71206;SHT31;58935;54.498;18.544;2023-02-24T03:00:33;5.99;84.34
71206;SHT31;58935;54.498;18.544;2023-02-24T03:03:07;5.99;84.40
71206;SHT31;58935;54.498;18.544;2023-02-24T03:05:42;5.99;84.49
71206;SHT31;58935;54.498;18.544;2023-02-24T03:08:14;5.99;84.44
71206;SHT31;58935;54.498;18.544;2023-02-24T03:10:46;5.99;84.45
71206;SHT31;58935;54.498;18.544;2023-02-24T03:13:20;6.01;84.41
71206;SHT31;58935;54.498;18.544;2023-02-24T03:15:49;6.00;84.43
71206;SHT31;58935;54.498;18.544;2023-02-24T03:18:18;6.01;84.39
71206;SHT31;58935;54.498;18.544;2023-02-24T03:20:53;6.02;84.35
71206;SHT31;58935;54.498;18.544;2023-02-24T03:23:29;6.00;84.24
71206;SHT31;58935;54.498;18.544;2023-02-24T03:26:08;6.00;84.25
71206;SHT31;58935;54.498;18.544;2023-02-24T03:28:45;6.01;84.20
71206;SHT31;58935;54.498;18.544;2023-02-24T03:31:18;6.01;84.19
71206;SHT31;58935;54.498;18.544;2023-02-24T03:33:54;6.03;84.10
71206;SHT31;58935;54.498;18.544;2023-02-24T03:36:26;6.04;84.02
71206;SHT31;58935;54.498;18.544;2023-02-24T03:38:52;6.06;84.00
71206;SHT31;58935;54.498;18.544;2023-02-24T03:41:18;6.09;83.94
71206;SHT31;58935;54.498;18.544;2023-02-24T03:43:44;6.10;83.89
71206;SHT31;58935;54.498;18.544;2023-02-24T03:46:14;6.11;83.87
71206;SHT31;58935;54.498;18.544;2023-02-24T03:48:42;6.11;83.94
71206;SHT31;58935;54.498;18.544;2023-02-24T03:51:14;6.11;83.96
71206;SHT31;58935;54.498;18.544;2023-02-24T03:53:49;6.11;83.98
71206;SHT31;58935;54.498;18.544;2023-02-24T03:56:44;6.10;83.91
71206;SHT31;58935;54.498;18.544;2023-02-24T03:59:41;6.11;83.90
71206;SHT31;58935;54.498;18.544;2023-02-24T04:02:14;6.09;83.87
71206;SHT31;58935;54.498;18.544;2023-02-24T04:04:50;6.10;83.85
71206;SHT31;58935;54.498;18.544;2023-02-24T04:10:26;6.11;83.81
71206;SHT31;58935;54.498;18.544;2023-02-24T04:12:44;6.10;83.81
71206;SHT31;58935;54.498;18.544;2023-02-24T04:15:18;6.08;83.82
71206;SHT31;58935;54.498;18.544;2023-02-24T04:17:52;6.07;83.80
71206;SHT31;58935;54.498;18.544;2023-02-24T04:20:21;6.09;83.68
71206;SHT31;58935;54.498;18.544;2023-02-24T04:22:52;6.10;83.60
71206;SHT31;58935;54.498;18.544;2023-02-24T04:25:24;6.09;83.60
71206;SHT31;58935;54.498;18.544;2023-02-24T04:27:52;6.09;83.57
71206;SHT31;58935;54.498;18.544;2023-02-24T04:30:21;6.08;83.58
71206;SHT31;58935;54.498;18.544;2023-02-24T04:32:48;6.08;83.59
71206;SHT31;58935;54.498;18.544;2023-02-24T04:35:19;6.06;83.67
71206;SHT31;58935;54.498;18.544;2023-02-24T04:37:49;6.04;83.72
71206;SHT31;58935;54.498;18.544;2023-02-24T04:40:16;6.03;83.79
71206;SHT31;58935;54.498;18.544;2023-02-24T04:42:46;6.03;83.84
71206;SHT31;58935;54.498;18.544;2023-02-24T04:45:14;6.00;83.81
71206;SHT31;58935;54.498;18.544;2023-02-24T04:47:42;6.00;83.82
71206;SHT31;58935;54.498;18.544;2023-02-24T04:50:11;6.01;83.73
71206;SHT31;58935;54.498;18.544;2023-02-24T04:52:47;6.01;83.65
71206;SHT31;58935;54.498;18.544;2023-02-24T04:55:14;6.01;83.40
71206;SHT31;58935;54.498;18.544;2023-02-24T04:57:41;6.04;83.27
71206;SHT31;58935;54.498;18.544;2023-02-24T05:00:11;6.05;83.11
71206;SHT31;58935;54.498;18.544;2023-02-24T05:02:44;6.05;82.99
71206;SHT31;58935;54.498;18.544;2023-02-24T05:05:12;6.03;82.77
71206;SHT31;58935;54.498;18.544;2023-02-24T05:07:38;6.00;82.60
71206;SHT31;58935;54.498;18.544;2023-02-24T05:10:04;5.97;82.63
71206;SHT31;58935;54.498;18.544;2023-02-24T05:12:31;5.93;82.82
71206;SHT31;58935;54.498;18.544;2023-02-24T05:14:59;5.91;82.81
71206;SHT31;58935;54.498;18.544;2023-02-24T05:17:25;5.87;82.94
71206;SHT31;58935;54.498;18.544;2023-02-24T05:19:51;5.86;83.09
71206;SHT31;58935;54.498;18.544;2023-02-24T05:22:20;5.86;83.17
71206;SHT31;58935;54.498;18.544;2023-02-24T05:24:48;5.86;83.11
71206;SHT31;58935;54.498;18.544;2023-02-24T05:27:14;5.85;82.95
71206;SHT31;58935;54.498;18.544;2023-02-24T05:29:41;5.82;82.60
71206;SHT31;58935;54.498;18.544;2023-02-24T05:32:08;5.78;82.49
71206;SHT31;58935;54.498;18.544;2023-02-24T05:34:34;5.75;82.47
71206;SHT31;58935;54.498;18.544;2023-02-24T05:37:00;5.72;82.41
71206;SHT31;58935;54.498;18.544;2023-02-24T05:39:31;5.72;82.16
71206;SHT31;58935;54.498;18.544;2023-02-24T05:41:56;5.71;82.02
71206;SHT31;58935;54.498;18.544;2023-02-24T05:44:23;5.70;81.88
71206;SHT31;58935;54.498;18.544;2023-02-24T05:46:51;5.68;81.85
71206;SHT31;58935;54.498;18.544;2023-02-24T05:49:23;5.66;81.72
71206;SHT31;58935;54.498;18.544;2023-02-24T05:51:52;5.65;81.43
71206;SHT31;58935;54.498;18.544;2023-02-24T05:54:27;5.63;81.15
71206;SHT31;58935;54.498;18.544;2023-02-24T05:56:54;5.61;80.69
71206;SHT31;58935;54.498;18.544;2023-02-24T05:59:24;5.59;80.37
71206;SHT31;58935;54.498;18.544;2023-02-24T06:01:56;5.59;80.25
71206;SHT31;58935;54.498;18.544;2023-02-24T06:04:24;5.57;80.24
71206;SHT31;58935;54.498;18.544;2023-02-24T06:07:04;5.55;80.23
71206;SHT31;58935;54.498;18.544;2023-02-24T06:09:38;5.54;80.07
71206;SHT31;58935;54.498;18.544;2023-02-24T06:12:07;5.53;80.07
71206;SHT31;58935;54.498;18.544;2023-02-24T06:14:33;5.52;79.82
71206;SHT31;58935;54.498;18.544;2023-02-24T06:16:59;5.48;79.55
71206;SHT31;58935;54.498;18.544;2023-02-24T06:19:26;5.42;79.42
71206;SHT31;58935;54.498;18.544;2023-02-24T06:21:56;5.38;79.32
71206;SHT31;58935;54.498;18.544;2023-02-24T06:24:27;5.37;79.39
71206;SHT31;58935;54.498;18.544;2023-02-24T06:26:54;5.36;79.30
71206;SHT31;58935;54.498;18.544;2023-02-24T06:29:26;5.34;79.40
71206;SHT31;58935;54.498;18.544;2023-02-24T06:31:53;5.32;79.44
71206;SHT31;58935;54.498;18.544;2023-02-24T06:34:23;5.29;79.43
71206;SHT31;58935;54.498;18.544;2023-02-24T06:36:50;5.26;79.47
71206;SHT31;58935;54.498;18.544;2023-02-24T06:39:17;5.22;79.37
71206;SHT31;58935;54.498;18.544;2023-02-24T06:41:43;5.15;78.78
71206;SHT31;58935;54.498;18.544;2023-02-24T06:44:09;5.08;78.50
71206;SHT31;58935;54.498;18.544;2023-02-24T06:46:35;4.99;78.33
71206;SHT31;58935;54.498;18.544;2023-02-24T06:49:03;4.91;78.13
71206;SHT31;58935;54.498;18.544;2023-02-24T06:51:28;4.82;78.01
71206;SHT31;58935;54.498;18.544;2023-02-24T06:53:55;4.74;78.10
71206;SHT31;58935;54.498;18.544;2023-02-24T06:56:23;4.66;78.28
71206;SHT31;58935;54.498;18.544;2023-02-24T06:58:50;4.59;78.45
71206;SHT31;58935;54.498;18.544;2023-02-24T07:01:21;4.53;78.25
71206;SHT31;58935;54.498;18.544;2023-02-24T07:03:50;4.46;77.05
71206;SHT31;58935;54.498;18.544;2023-02-24T07:06:37;4.39;76.97
71206;SHT31;58935;54.498;18.544;2023-02-24T07:09:07;4.30;76.81
71206;SHT31;58935;54.498;18.544;2023-02-24T07:11:35;4.24;76.65
71206;SHT31;58935;54.498;18.544;2023-02-24T07:14:04;4.18;76.21
71206;SHT31;58935;54.498;18.544;2023-02-24T07:16:29;4.16;75.93
71206;SHT31;58935;54.498;18.544;2023-02-24T07:18:57;4.13;75.21
71206;SHT31;58935;54.498;18.544;2023-02-24T07:21:25;4.07;74.44
71206;SHT31;58935;54.498;18.544;2023-02-24T07:23:54;4.00;73.78
71206;SHT31;58935;54.498;18.544;2023-02-24T07:26:23;3.93;73.55
71206;SHT31;58935;54.498;18.544;2023-02-24T07:28:50;3.88;73.07
71206;SHT31;58935;54.498;18.544;2023-02-24T07:31:19;3.81;73.15
71206;SHT31;58935;54.498;18.544;2023-02-24T07:33:46;3.77;73.37
71206;SHT31;58935;54.498;18.544;2023-02-24T07:36:13;3.74;73.27
71206;SHT31;58935;54.498;18.544;2023-02-24T07:38:42;3.75;73.28
71206;SHT31;58935;54.498;18.544;2023-02-24T07:41:09;3.76;73.63
71206;SHT31;58935;54.498;18.544;2023-02-24T07:43:40;3.79;73.55
71206;SHT31;58935;54.498;18.544;2023-02-24T07:46:07;3.82;73.34
71206;SHT31;58935;54.498;18.544;2023-02-24T07:48:34;3.82;72.53
71206;SHT31;58935;54.498;18.544;2023-02-24T07:51:04;3.78;71.99
71206;SHT31;58935;54.498;18.544;2023-02-24T07:53:31;3.74;71.14
71206;SHT31;58935;54.498;18.544;2023-02-24T07:55:59;3.69;71.13
71206;SHT31;58935;54.498;18.544;2023-02-24T07:58:30;3.67;71.34
71206;SHT31;58935;54.498;18.544;2023-02-24T08:00:59;3.64;70.95
71206;SHT31;58935;54.498;18.544;2023-02-24T08:03:32;3.63;70.96
71206;SHT31;58935;54.498;18.544;2023-02-24T08:05:58;3.64;70.78
71206;SHT31;58935;54.498;18.544;2023-02-24T08:08:37;3.67;70.94
71206;SHT31;58935;54.498;18.544;2023-02-24T08:11:22;3.65;70.24
71206;SHT31;58935;54.498;18.544;2023-02-24T08:13:51;3.63;70.28
71206;SHT31;58935;54.498;18.544;2023-02-24T08:16:17;3.61;69.64
71206;SHT31;58935;54.498;18.544;2023-02-24T08:18:45;3.58;67.93
71206;SHT31;58935;54.498;18.544;2023-02-24T08:21:14;3.58;67.85
71206;SHT31;58935;54.498;18.544;2023-02-24T08:23:41;3.62;68.41
71206;SHT31;58935;54.498;18.544;2023-02-24T08:26:08;3.70;68.50
71206;SHT31;58935;54.498;18.544;2023-02-24T08:28:37;3.77;67.92
71206;SHT31;58935;54.498;18.544;2023-02-24T08:31:04;3.78;67.47
71206;SHT31;58935;54.498;18.544;2023-02-24T08:33:32;3.81;67.78
71206;SHT31;58935;54.498;18.544;2023-02-24T08:36:01;3.86;67.66
71206;SHT31;58935;54.498;18.544;2023-02-24T08:38:28;3.86;66.81
71206;SHT31;58935;54.498;18.544;2023-02-24T08:41:05;3.93;67.23
71206;SHT31;58935;54.498;18.544;2023-02-24T08:43:36;4.00;67.00
71206;SHT31;58935;54.498;18.544;2023-02-24T08:48:39;4.24;67.08
71206;SHT31;58935;54.498;18.544;2023-02-24T08:51:14;4.34;66.47
71206;SHT31;58935;54.498;18.544;2023-02-24T08:53:49;4.44;65.95
71206;SHT31;58935;54.498;18.544;2023-02-24T08:56:18;4.50;65.39
71206;SHT31;58935;54.498;18.544;2023-02-24T08:58:52;4.59;65.71
71206;SHT31;58935;54.498;18.544;2023-02-24T09:01:22;4.63;64.78
71206;SHT31;58935;54.498;18.544;2023-02-24T09:03:53;4.64;64.46
71206;SHT31;58935;54.498;18.544;2023-02-24T09:06:23;4.65;64.85
71206;SHT31;58935;54.498;18.544;2023-02-24T09:08:58;4.69;64.14
71206;SHT31;58935;54.498;18.544;2023-02-24T09:11:26;4.71;64.39
71206;SHT31;58935;54.498;18.544;2023-02-24T09:13:52;4.77;64.58
71206;SHT31;58935;54.498;18.544;2023-02-24T09:16:22;4.81;64.05
71206;SHT31;58935;54.498;18.544;2023-02-24T09:18:49;4.84;64.02
71206;SHT31;58935;54.498;18.544;2023-02-24T09:21:18;4.85;63.71
71206;SHT31;58935;54.498;18.544;2023-02-24T09:24:03;4.86;63.96
71206;SHT31;58935;54.498;18.544;2023-02-24T09:26:34;4.90;64.19
71206;SHT31;58935;54.498;18.544;2023-02-24T09:29:04;4.97;64.59
71206;SHT31;58935;54.498;18.544;2023-02-24T09:31:50;5.06;64.58
71206;SHT31;58935;54.498;18.544;2023-02-24T09:34:19;5.19;64.79
71206;SHT31;58935;54.498;18.544;2023-02-24T09:36:54;5.29;64.16
71206;SHT31;58935;54.498;18.544;2023-02-24T09:39:29;5.32;63.42
71206;SHT31;58935;54.498;18.544;2023-02-24T09:42:00;5.28;62.93
71206;SHT31;58935;54.498;18.544;2023-02-24T09:44:49;5.26;62.96
71206;SHT31;58935;54.498;18.544;2023-02-24T09:49:57;5.22;63.18
71206;SHT31;58935;54.498;18.544;2023-02-24T09:52:28;5.21;63.38
71206;SHT31;58935;54.498;18.544;2023-02-24T09:54:58;5.21;63.40
71206;SHT31;58935;54.498;18.544;2023-02-24T09:57:27;5.22;63.56
71206;SHT31;58935;54.498;18.544;2023-02-24T10:00:02;5.26;63.70
71206;SHT31;58935;54.498;18.544;2023-02-24T10:02:40;5.33;63.65
71206;SHT31;58935;54.498;18.544;2023-02-24T10:07:46;5.36;63.39
71206;SHT31;58935;54.498;18.544;2023-02-24T10:12:52;5.51;63.29
71206;SHT31;58935;54.498;18.544;2023-02-24T10:15:26;5.59;63.20
71206;SHT31;58935;54.498;18.544;2023-02-24T10:21:00;5.63;62.24
71206;SHT31;58935;54.498;18.544;2023-02-24T10:26:12;5.65;62.77
71206;SHT31;58935;54.498;18.544;2023-02-24T10:29:00;5.76;63.01
71206;SHT31;58935;54.498;18.544;2023-02-24T10:34:07;5.98;62.65
71206;SHT31;58935;54.498;18.544;2023-02-24T10:36:36;6.07;62.93
71206;SHT31;58935;54.498;18.544;2023-02-24T10:44:09;6.07;60.78
71206;SHT31;58935;54.498;18.544;2023-02-24T10:46:35;6.00;60.92
71206;SHT31;58935;54.498;18.544;2023-02-24T10:49:03;5.95;61.11
71206;SHT31;58935;54.498;18.544;2023-02-24T10:51:35;5.94;61.20
71206;SHT31;58935;54.498;18.544;2023-02-24T10:56:41;5.93;61.51
71206;SHT31;58935;54.498;18.544;2023-02-24T10:59:12;5.93;61.25
71206;SHT31;58935;54.498;18.544;2023-02-24T11:01:42;5.90;61.25
71206;SHT31;58935;54.498;18.544;2023-02-24T11:04:19;5.94;61.48
71206;SHT31;58935;54.498;18.544;2023-02-24T11:09:33;5.97;61.16
71206;SHT31;58935;54.498;18.544;2023-02-24T11:12:16;5.94;60.82
71206;SHT31;58935;54.498;18.544;2023-02-24T11:17:21;5.90;61.13
71206;SHT31;58935;54.498;18.544;2023-02-24T11:22:27;5.95;61.88
71206;SHT31;58935;54.498;18.544;2023-02-24T11:24:57;5.97;61.96
71206;SHT31;58935;54.498;18.544;2023-02-24T11:27:29;5.95;61.39
71206;SHT31;58935;54.498;18.544;2023-02-24T11:40:38;5.69;61.61
71206;SHT31;58935;54.498;18.544;2023-02-24T11:43:12;5.63;61.89
71206;SHT31;58935;54.498;18.544;2023-02-24T11:45:45;5.61;61.83
71206;SHT31;58935;54.498;18.544;2023-02-24T11:48:24;5.61;61.87
71206;SHT31;58935;54.498;18.544;2023-02-24T11:50:58;5.63;61.75
71206;SHT31;58935;54.498;18.544;2023-02-24T11:58:33;5.69;61.94
71206;SHT31;58935;54.498;18.544;2023-02-24T12:01:08;5.74;62.24
71206;SHT31;58935;54.498;18.544;2023-02-24T12:03:48;5.81;61.91
71206;SHT31;58935;54.498;18.544;2023-02-24T12:06:26;5.87;61.77
71206;SHT31;58935;54.498;18.544;2023-02-24T12:09:00;5.91;61.15
71206;SHT31;58935;54.498;18.544;2023-02-24T12:16:44;5.91;61.00
71206;SHT31;58935;54.498;18.544;2023-02-24T12:19:15;5.92;61.20
71206;SHT31;58935;54.498;18.544;2023-02-24T12:21:50;5.99;61.46
71206;SHT31;58935;54.498;18.544;2023-02-24T12:24:17;6.05;61.06
71206;SHT31;58935;54.498;18.544;2023-02-24T12:32:19;6.19;61.59
71206;SHT31;58935;54.498;18.544;2023-02-24T12:43:13;6.25;60.85
71206;SHT31;58935;54.498;18.544;2023-02-24T12:45:47;6.26;60.90
71206;SHT31;58935;54.498;18.544;2023-02-24T12:51:20;6.20;60.12
71206;SHT31;58935;54.498;18.544;2023-02-24T12:53:56;6.11;60.30
71206;SHT31;58935;54.498;18.544;2023-02-24T12:56:48;6.11;60.92
71206;SHT31;58935;54.498;18.544;2023-02-24T12:59:21;6.14;60.75
71206;SHT31;58935;54.498;18.544;2023-02-24T13:01:54;6.16;60.54
71206;SHT31;58935;54.498;18.544;2023-02-24T13:04:28;6.17;60.47
71206;SHT31;58935;54.498;18.544;2023-02-24T13:07:25;6.19;60.84
71206;SHT31;58935;54.498;18.544;2023-02-24T13:10:45;6.25;60.34
71206;SHT31;58935;54.498;18.544;2023-02-24T13:18:21;6.14;59.70
71206;SHT31;58935;54.498;18.544;2023-02-24T13:20:49;6.11;59.36
71206;SHT31;58935;54.498;18.544;2023-02-24T13:23:26;6.04;59.24
71206;SHT31;58935;54.498;18.544;2023-02-24T13:25:52;6.02;60.13
71206;SHT31;58935;54.498;18.544;2023-02-24T13:30:59;6.02;58.87
71206;SHT31;58935;54.498;18.544;2023-02-24T13:33:32;5.95;58.96
71206;SHT31;58935;54.498;18.544;2023-02-24T13:38:37;5.88;59.25
71206;SHT31;58935;54.498;18.544;2023-02-24T13:46:16;6.02;59.46
71206;SHT31;58935;54.498;18.544;2023-02-24T13:48:45;6.10;59.62
71206;SHT31;58935;54.498;18.544;2023-02-24T13:51:32;6.19;59.47
71206;SHT31;58935;54.498;18.544;2023-02-24T14:01:59;6.32;58.57
71206;SHT31;58935;54.498;18.544;2023-02-24T14:04:30;6.33;58.79
71206;SHT31;58935;54.498;18.544;2023-02-24T14:06:59;6.36;58.71
71206;SHT31;58935;54.498;18.544;2023-02-24T14:09:29;6.36;58.34
71206;SHT31;58935;54.498;18.544;2023-02-24T14:11:59;6.33;58.41
71206;SHT31;58935;54.498;18.544;2023-02-24T14:14:29;6.30;58.54
71206;SHT31;58935;54.498;18.544;2023-02-24T14:16:58;6.27;58.60
71206;SHT31;58935;54.498;18.544;2023-02-24T14:19:24;6.23;58.52
71206;SHT31;58935;54.498;18.544;2023-02-24T14:21:52;6.18;58.54
71206;SHT31;58935;54.498;18.544;2023-02-24T14:24:20;6.16;58.55
71206;SHT31;58935;54.498;18.544;2023-02-24T14:26:47;6.16;58.69
71206;SHT31;58935;54.498;18.544;2023-02-24T14:29:19;6.15;58.70
71206;SHT31;58935;54.498;18.544;2023-02-24T14:31:51;6.13;58.40
71206;SHT31;58935;54.498;18.544;2023-02-24T14:34:22;6.04;58.05
71206;SHT31;58935;54.498;18.544;2023-02-24T14:36:52;5.95;58.35
71206;SHT31;58935;54.498;18.544;2023-02-24T14:39:24;5.90;58.77
71206;SHT31;58935;54.498;18.544;2023-02-24T14:42:02;5.87;58.99
71206;SHT31;58935;54.498;18.544;2023-02-24T14:44:38;5.84;59.51
71206;SHT31;58935;54.498;18.544;2023-02-24T14:47:10;5.84;59.74
71206;SHT31;58935;54.498;18.544;2023-02-24T14:49:39;5.85;59.71
71206;SHT31;58935;54.498;18.544;2023-02-24T14:52:07;5.84;59.92
71206;SHT31;58935;54.498;18.544;2023-02-24T14:54:44;5.86;60.09
71206;SHT31;58935;54.498;18.544;2023-02-24T14:57:17;5.88;59.93
71206;SHT31;58935;54.498;18.544;2023-02-24T14:59:49;5.85;59.88
71206;SHT31;58935;54.498;18.544;2023-02-24T15:02:20;5.80;59.98
71206;SHT31;58935;54.498;18.544;2023-02-24T15:04:51;5.76;60.24
71206;SHT31;58935;54.498;18.544;2023-02-24T15:07:21;5.72;60.57
71206;SHT31;58935;54.498;18.544;2023-02-24T15:09:49;5.70;60.62
71206;SHT31;58935;54.498;18.544;2023-02-24T15:12:20;5.68;60.89
71206;SHT31;58935;54.498;18.544;2023-02-24T15:15:01;5.71;61.10
71206;SHT31;58935;54.498;18.544;2023-02-24T15:17:31;5.67;60.79
71206;SHT31;58935;54.498;18.544;2023-02-24T15:19:57;5.64;60.93
71206;SHT31;58935;54.498;18.544;2023-02-24T15:22:25;5.63;61.02
71206;SHT31;58935;54.498;18.544;2023-02-24T15:24:55;5.58;60.93
71206;SHT31;58935;54.498;18.544;2023-02-24T15:27:34;5.53;61.22
71206;SHT31;58935;54.498;18.544;2023-02-24T15:30:01;5.48;61.17
71206;SHT31;58935;54.498;18.544;2023-02-24T15:32:31;5.47;61.54
71206;SHT31;58935;54.498;18.544;2023-02-24T15:34:58;5.45;61.54
71206;SHT31;58935;54.498;18.544;2023-02-24T15:37:25;5.44;61.61
71206;SHT31;58935;54.498;18.544;2023-02-24T15:39:58;5.43;61.45
71206;SHT31;58935;54.498;18.544;2023-02-24T15:42:31;5.37;61.49
71206;SHT31;58935;54.498;18.544;2023-02-24T15:45:01;5.32;61.59
71206;SHT31;58935;54.498;18.544;2023-02-24T15:47:40;5.22;62.00
71206;SHT31;58935;54.498;18.544;2023-02-24T15:50:07;5.16;62.37
71206;SHT31;58935;54.498;18.544;2023-02-24T15:52:34;5.11;62.67
71206;SHT31;58935;54.498;18.544;2023-02-24T15:55:00;5.08;62.93
71206;SHT31;58935;54.498;18.544;2023-02-24T15:57:28;5.05;63.19
71206;SHT31;58935;54.498;18.544;2023-02-24T15:59:55;5.03;63.40
71206;SHT31;58935;54.498;18.544;2023-02-24T16:02:21;5.03;63.64
71206;SHT31;58935;54.498;18.544;2023-02-24T16:04:48;5.00;63.91
71206;SHT31;58935;54.498;18.544;2023-02-24T16:07:15;4.97;64.10
71206;SHT31;58935;54.498;18.544;2023-02-24T16:09:44;4.93;64.26
71206;SHT31;58935;54.498;18.544;2023-02-24T16:12:12;4.92;64.46
71206;SHT31;58935;54.498;18.544;2023-02-24T16:14:42;4.90;64.72
71206;SHT31;58935;54.498;18.544;2023-02-24T16:19:45;4.81;65.32
71206;SHT31;58935;54.498;18.544;2023-02-24T16:22:11;4.78;65.61
71206;SHT31;58935;54.498;18.544;2023-02-24T16:24:36;4.76;65.84
71206;SHT31;58935;54.498;18.544;2023-02-24T16:27:02;4.74;66.18
71206;SHT31;58935;54.498;18.544;2023-02-24T16:29:30;4.70;66.43
71206;SHT31;58935;54.498;18.544;2023-02-24T16:31:55;4.67;66.64
71206;SHT31;58935;54.498;18.544;2023-02-24T16:34:21;4.66;66.81
71206;SHT31;58935;54.498;18.544;2023-02-24T16:36:46;4.63;67.00
71206;SHT31;58935;54.498;18.544;2023-02-24T16:39:12;4.61;67.13
71206;SHT31;58935;54.498;18.544;2023-02-24T16:41:40;4.59;67.30
71206;SHT31;58935;54.498;18.544;2023-02-24T16:44:05;4.57;67.43
71206;SHT31;58935;54.498;18.544;2023-02-24T16:46:33;4.56;67.55
71206;SHT31;58935;54.498;18.544;2023-02-24T16:49:02;4.55;67.64
71206;SHT31;58935;54.498;18.544;2023-02-24T16:51:32;4.52;67.79
71206;SHT31;58935;54.498;18.544;2023-02-24T16:53:59;4.50;67.86
71206;SHT31;58935;54.498;18.544;2023-02-24T16:56:28;4.48;67.96
71206;SHT31;58935;54.498;18.544;2023-02-24T16:58:53;4.45;68.09
71206;SHT31;58935;54.498;18.544;2023-02-24T17:01:19;4.43;68.34
71206;SHT31;58935;54.498;18.544;2023-02-24T17:03:46;4.39;68.63
71206;SHT31;58935;54.498;18.544;2023-02-24T17:06:16;4.35;68.93
71206;SHT31;58935;54.498;18.544;2023-02-24T17:08:42;4.31;69.18
71206;SHT31;58935;54.498;18.544;2023-02-24T17:11:11;4.27;69.46
71206;SHT31;58935;54.498;18.544;2023-02-24T17:13:38;4.23;69.66
71206;SHT31;58935;54.498;18.544;2023-02-24T17:16:03;4.19;69.84
71206;SHT31;58935;54.498;18.544;2023-02-24T17:18:29;4.17;69.92
71206;SHT31;58935;54.498;18.544;2023-02-24T17:20:54;4.16;70.22
71206;SHT31;58935;54.498;18.544;2023-02-24T17:23:22;4.12;70.30
71206;SHT31;58935;54.498;18.544;2023-02-24T17:25:50;4.13;70.40
71206;SHT31;58935;54.498;18.544;2023-02-24T17:28:17;4.13;70.51
71206;SHT31;58935;54.498;18.544;2023-02-24T17:30:43;4.11;70.68
71206;SHT31;58935;54.498;18.544;2023-02-24T17:33:09;4.10;70.70
71206;SHT31;58935;54.498;18.544;2023-02-24T17:35:35;4.11;70.80
71206;SHT31;58935;54.498;18.544;2023-02-24T17:38:00;4.11;70.93
71206;SHT31;58935;54.498;18.544;2023-02-24T17:40:26;4.11;71.07
71206;SHT31;58935;54.498;18.544;2023-02-24T17:42:53;4.10;71.10
71206;SHT31;58935;54.498;18.544;2023-02-24T17:45:18;4.10;71.20
71206;SHT31;58935;54.498;18.544;2023-02-24T17:47:47;4.13;71.25